Dieringer, Washington
Current Conditions -  °F | °C
As of 12:58 AM on Wednesday 22 Oct 2014 (Local Time) from KTCM Reporting Station
Scattered Clouds Scattered Clouds  
Wind Chill: 15°   Ceiling: Unl
Heat Index: 15°   Visibility: 10mi
Dew Point:   Wind: 18mph
Humidity: 66%   Direction: 170°S
Pressure: 29.72"   Gusts: 29mph
Location:  47.2018°N, 122.233°W
Report Text: KTCM 220758Z AUTO 17016G25KT 10SM SCT060 SCT080 15/09 A2972 RMK AO2 SLP067 T01480085 401750105 $
Loading
Personal Weather Stations






























Interactive Weather Map
Tropical Storm Tracking
New forecast layout! Learn more

10-Day Weather Forecast

Advertisements
Track Severe Weather on mobile